Appleton, Illinois
Current Conditions -  °F | °C
As of 7:55 AM on Wednesday 28 Jan 2015 (Local Time) from KGBG Reporting Station
Clear Clear  
Wind Chill: -9°   Ceiling: Unl
Heat Index: -3°   Visibility: 10mi
Dew Point: -7°   Wind: 9mph
Humidity: 77%   Direction: 130°SE
Pressure: 30.19"   Gusts: NA
Location:  40.9602°N, 90.1517°W
Report Text: KGBG 281355Z AUTO 13008KT 10SM CLR M03/M07 A3019 RMK AO2 T10351070
Loading
Personal Weather Stations






























Interactive Weather Map New forecast layout! Learn more

10-Day Weather Forecast

Advertisements
Track Severe Weather on mobile